Time;durP1;ratioP1;P1;durP2;ratioP2;P2;SDS_P1;SDS_P2;PMS_P1;PMS_P2;Temp;Humidity;BMP_temperature;BMP_pressure;BME280_temperature;BME280_humidity;BME280_pressure;Samples;Min_cycle;Max_cycle;Signal;HPM_P1;HPM_P2
2023/07/08 00:00:00;;;;;;;7.78;3.25;;;;;;;20.87;57.77;156695.31;5021199;28;20462;-75
2023/07/08 00:02:25;;;;;;;4.60;2.83;;;;;;;20.92;57.13;156707.13;5038087;28;20036;-75
2023/07/08 00:04:51;;;;;;;10.07;3.13;;;;;;;20.94;56.92;156713.66;5008169;28;20030;-75
2023/07/08 00:07:19;;;;;;;7.17;3.00;;;;;;;20.85;57.59;156690.09;5012400;28;20025;-75
2023/07/08 00:09:45;;;;;;;5.03;2.83;;;;;;;20.84;57.51;156687.50;5034625;28;20398;-76
2023/07/08 00:12:11;;;;;;;5.10;2.80;;;;;;;20.78;57.84;156670.53;5006033;28;20052;-75
2023/07/08 00:14:37;;;;;;;5.00;3.17;;;;;;;20.75;57.94;156662.72;5012020;28;20068;-76
2023/07/08 00:17:03;;;;;;;7.57;3.70;;;;;;;20.63;58.78;156631.38;5030312;28;20040;-76
2023/07/08 00:19:28;;;;;;;6.53;3.00;;;;;;;20.58;58.85;156618.31;5027898;28;20029;-76
2023/07/08 00:21:53;;;;;;;6.83;3.10;;;;;;;20.52;59.02;156602.69;5028101;28;20029;-76
2023/07/08 00:24:19;;;;;;;8.20;3.57;;;;;;;20.49;59.31;156594.88;5029369;28;20033;-76
2023/07/08 00:26:44;;;;;;;6.03;3.40;;;;;;;20.47;59.21;156589.63;5029913;28;20081;-74
2023/07/08 00:29:17;;;;;;;7.20;2.75;;;;;;;20.35;60.06;156558.31;5027499;28;20037;-74
2023/07/08 00:31:42;;;;;;;3.90;2.80;;;;;;;20.33;60.09;156553.13;5011239;28;20496;-74
2023/07/08 00:34:08;;;;;;;4.57;2.90;;;;;;;20.30;60.05;156545.28;5029431;28;20052;-76
2023/07/08 00:36:35;;;;;;;7.77;2.97;;;;;;;20.24;60.85;156530.97;5029743;28;20033;-74
2023/07/08 00:39:00;;;;;;;7.90;2.95;;;;;;;20.26;60.31;156534.84;5003789;28;20042;-76
2023/07/08 00:41:41;;;;;;;8.37;3.10;;;;;;;20.29;60.01;156542.69;5006425;28;20017;-76
2023/07/08 00:44:10;;;;;;;5.05;2.90;;;;;;;20.24;60.43;156529.63;5007426;28;20036;-76
2023/07/08 00:46:52;;;;;;;4.07;3.05;;;;;;;20.19;61.02;156516.59;5003639;28;20033;-76
2023/07/08 00:49:34;;;;;;;7.75;3.20;;;;;;;20.16;60.79;156508.78;5027413;28;20435;-76
2023/07/08 00:52:27;;;;;;;11.63;4.05;;;;;;;20.14;61.17;156503.53;5022795;28;20030;-76
2023/07/08 00:55:12;;;;;;;7.18;2.70;;;;;;;20.07;61.63;156485.31;5024870;28;20060;-76
2023/07/08 00:57:43;;;;;;;5.65;3.08;;;;;;;20.06;61.28;156483.91;5011062;28;20029;-76
2023/07/08 01:00:12;;;;;;;4.15;2.85;;;;;;;20.05;61.46;156480.00;5028182;28;20075;-74
2023/07/08 01:02:54;;;;;;;5.05;2.80;;;;;;;20.05;61.63;156480.00;5010471;28;20033;-72
2023/07/08 01:05:23;;;;;;;5.55;3.42;;;;;;;19.95;61.79;156455.22;5010908;28;20099;-73
2023/07/08 01:08:01;;;;;;;8.07;3.50;;;;;;;19.96;62.08;156456.56;5029192;28;20030;-72
2023/07/08 01:10:33;;;;;;;9.07;3.17;;;;;;;19.88;62.62;156435.66;5027597;28;20037;-72
2023/07/08 01:13:04;;;;;;;6.50;2.90;;;;;;;19.77;62.95;156408.31;5027245;28;20060;-73
2023/07/08 01:15:39;;;;;;;5.47;2.78;;;;;;;19.70;63.40;156390.03;5006743;28;20064;-73
2023/07/08 01:18:08;;;;;;;6.72;3.33;;;;;;;19.66;63.48;156379.63;4996051;28;20038;-73
2023/07/08 01:20:34;;;;;;;4.88;2.85;;;;;;;19.60;63.76;156362.66;5014075;28;20017;-72
2023/07/08 01:22:59;;;;;;;3.87;2.60;;;;;;;19.52;64.59;156341.84;5037590;28;20029;-73
2023/07/08 01:25:25;;;;;;;6.50;3.60;;;;;;;19.45;64.91;156324.88;5041440;28;20033;-72
2023/07/08 01:27:56;;;;;;;6.65;3.28;;;;;;;19.34;65.81;156296.19;5000696;28;20083;-71
2023/07/08 01:30:22;;;;;;;10.63;3.05;;;;;;;19.27;66.03;156277.91;5025677;28;20037;-72
2023/07/08 01:32:51;;;;;;;9.87;3.33;;;;;;;19.24;66.37;156270.13;5029243;28;20025;-72
2023/07/08 01:35:17;;;;;;;6.38;3.65;;;;;;;19.19;67.38;156255.72;5028323;28;20029;-72
2023/07/08 01:37:48;;;;;;;8.15;3.78;;;;;;;19.12;67.93;156237.47;5030476;28;20025;-72
2023/07/08 01:40:26;;;;;;;9.93;3.17;;;;;;;19.07;68.23;156225.75;5018533;28;20106;-73
2023/07/08 01:42:53;;;;;;;4.80;3.42;;;;;;;18.97;68.56;156198.38;5005189;28;20057;-74
2023/07/08 01:45:21;;;;;;;10.45;3.40;;;;;;;18.90;69.09;156181.41;5009625;28;20452;-72
2023/07/08 01:52:59;;;;;;;7.30;3.78;;;;;;;18.76;69.96;156143.63;5210222;23;20079;-73
2023/07/08 01:55:30;;;;;;;5.82;3.42;;;;;;;18.77;70.35;156146.25;5052678;28;20495;-72
2023/07/08 01:57:55;;;;;;;6.78;3.42;;;;;;;18.79;70.12;156151.47;5052323;28;20033;-73
2023/07/08 02:00:22;;;;;;;6.00;2.87;;;;;;;18.76;70.33;156144.97;5050071;28;20315;-72
2023/07/08 02:02:48;;;;;;;7.00;3.53;;;;;;;18.77;70.18;156146.25;5052403;28;20024;-72
2023/07/08 02:05:14;;;;;;;4.75;3.30;;;;;;;18.75;70.36;156141.03;5048939;28;20048;-73
2023/07/08 02:07:40;;;;;;;7.68;3.45;;;;;;;18.83;69.37;156163.19;5052416;28;20025;-73
2023/07/08 02:10:06;;;;;;;11.07;3.27;;;;;;;18.86;69.34;156169.72;5034509;28;20052;-72
2023/07/08 02:12:31;;;;;;;7.03;3.38;;;;;;;18.93;69.31;156189.25;5051850;28;20031;-72
2023/07/08 02:15:00;;;;;;;7.03;3.10;;;;;;;19.07;68.08;156225.75;5034242;28;20388;-72
2023/07/08 02:17:25;;;;;;;6.20;3.60;;;;;;;19.06;68.24;156221.84;5048794;28;20071;-72
2023/07/08 02:19:50;;;;;;;6.07;3.00;;;;;;;19.15;67.37;156245.31;5040883;28;20025;-73
2023/07/08 02:22:16;;;;;;;4.80;2.93;;;;;;;19.19;67.10;156255.72;5051166;28;20150;-72
2023/07/08 02:24:41;;;;;;;8.10;3.17;;;;;;;19.22;67.27;156264.88;5031798;28;20037;-72
2023/07/08 02:27:08;;;;;;;3.90;2.60;;;;;;;19.16;67.93;156247.91;5032958;28;20024;-72
2023/07/08 02:29:34;;;;;;;4.60;3.05;;;;;;;19.12;67.51;156237.47;5028699;28;20025;-72
2023/07/08 02:31:59;;;;;;;6.60;3.00;;;;;;;19.14;67.21;156242.66;5046333;28;20013;-72
2023/07/08 02:34:25;;;;;;;6.27;3.03;;;;;;;19.10;67.98;156232.28;5051936;28;20048;-72
2023/07/08 02:36:50;;;;;;;14.73;3.03;;;;;;;19.03;67.94;156214.00;5047528;28;20020;-72
2023/07/08 02:39:15;;;;;;;4.60;3.40;;;;;;;18.99;68.51;156203.63;5053181;28;20032;-71
2023/07/08 02:41:41;;;;;;;7.33;2.90;;;;;;;18.93;69.69;156187.94;5050902;28;20462;-72
2023/07/08 02:44:06;;;;;;;7.40;3.27;;;;;;;18.87;69.86;156172.31;5048546;28;20174;-71
2023/07/08 02:46:32;;;;;;;4.57;3.20;;;;;;;18.84;70.37;156165.78;5038936;28;20024;-72
2023/07/08 02:48:57;;;;;;;7.67;3.40;;;;;;;18.80;70.75;156154.06;5044063;28;20035;-73
2023/07/08 02:51:22;;;;;;;13.03;4.10;;;;;;;18.70;71.42;156128.00;5042955;28;20045;-72
2023/07/08 02:53:49;;;;;;;6.67;3.23;;;;;;;18.70;71.44;156129.34;5043812;28;20041;-72
2023/07/08 02:56:15;;;;;;;8.02;3.50;;;;;;;18.63;71.64;156109.78;5049477;28;20047;-72
2023/07/08 02:58:40;;;;;;;4.63;3.27;;;;;;;18.62;71.55;156108.47;5024267;28;20029;-72
2023/07/08 03:01:06;;;;;;;13.50;3.63;;;;;;;18.64;71.64;156113.72;5037727;28;20025;-75
2023/07/08 03:03:32;;;;;;;7.63;3.53;;;;;;;18.65;71.19;156114.97;5045787;28;20067;-75
2023/07/08 03:06:00;;;;;;;12.60;2.80;;;;;;;18.67;71.34;156120.22;5031381;28;20499;-76
2023/07/08 03:08:27;;;;;;;4.97;2.80;;;;;;;18.69;71.27;156125.41;5051229;28;20151;-76
2023/07/08 03:10:58;;;;;;;8.85;3.17;;;;;;;18.67;71.62;156120.22;5052250;28;20032;-77
2023/07/08 03:13:24;;;;;;;5.93;3.70;;;;;;;18.68;71.00;156124.09;5048975;28;20074;-76
2023/07/08 03:15:50;;;;;;;;;;;;;;;18.66;71.53;156118.91;5045710;28;20017;-76
2023/07/08 03:18:16;;;;;;;4.40;2.70;;;;;;;18.62;71.62;156108.47;5029012;28;19920;-77
2023/07/08 03:20:44;;;;;;;7.73;3.57;;;;;;;18.62;71.40;156108.47;5034240;28;20495;-75
2023/07/08 03:23:10;;;;;;;12.98;3.55;;;;;;;18.63;71.04;156109.78;5052092;28;20071;-75
2023/07/08 03:25:37;;;;;;;8.37;3.37;;;;;;;18.64;70.87;156113.72;5049496;28;20029;-74
2023/07/08 03:28:03;;;;;;;5.25;2.85;;;;;;;18.65;71.00;156114.97;5050915;28;20051;-76
2023/07/08 03:30:29;;;;;;;;;;;;;;;18.64;71.05;156112.38;5031463;28;20036;-75
2023/07/08 03:32:54;;;;;;;4.40;2.83;;;;;;;18.55;71.26;156088.91;5050216;28;19916;-75
2023/07/08 03:35:21;;;;;;;5.97;3.47;;;;;;;18.50;71.86;156075.88;5050501;28;20392;-76
2023/07/08 03:37:47;;;;;;;4.40;3.20;;;;;;;18.52;71.59;156082.41;5027690;28;20026;-76
2023/07/08 03:40:13;;;;;;;7.37;2.87;;;;;;;18.50;71.81;156077.22;5046280;28;20040;-76
2023/07/08 03:42:39;;;;;;;10.37;3.50;;;;;;;18.56;71.67;156091.56;5050753;28;20492;-76
2023/07/08 03:45:05;;;;;;;5.63;3.17;;;;;;;18.55;71.70;156088.91;5030758;28;20136;-76
2023/07/08 03:47:30;;;;;;;5.57;3.35;;;;;;;18.53;72.24;156083.72;5050617;28;20503;-75
2023/07/08 03:49:55;;;;;;;4.73;3.40;;;;;;;18.51;72.63;156079.81;5049504;28;20033;-76
2023/07/08 03:52:21;;;;;;;5.93;2.97;;;;;;;18.51;72.41;156078.53;5032563;28;20053;-75
2023/07/08 03:54:48;;;;;;;12.83;3.23;;;;;;;18.53;72.68;156083.72;5029895;28;20041;-75
2023/07/08 03:57:14;;;;;;;4.72;3.28;;;;;;;18.53;72.16;156083.72;5031357;28;20037;-75
2023/07/08 03:59:39;;;;;;;4.63;3.03;;;;;;;18.49;72.60;156074.63;5031955;28;20028;-75
2023/07/08 04:02:05;;;;;;;4.90;3.20;;;;;;;18.51;72.76;156078.53;5049146;28;20090;-75
2023/07/08 04:04:30;;;;;;;7.50;3.23;;;;;;;18.47;73.27;156068.09;5013488;28;20463;-75
2023/07/08 04:06:55;;;;;;;7.33;3.00;;;;;;;18.46;73.85;156066.78;5047374;28;20280;-75
2023/07/08 04:09:21;;;;;;;4.70;3.20;;;;;;;18.44;73.58;156061.59;5050245;28;20126;-75
2023/07/08 04:11:46;;;;;;;5.07;3.20;;;;;;;18.44;73.97;156060.25;5026484;28;20032;-75
2023/07/08 04:14:13;;;;;;;8.65;3.03;;;;;;;18.46;73.92;156066.78;5049803;28;20048;-76
2023/07/08 04:16:51;;;;;;;4.68;3.05;;;;;;;18.46;74.01;156066.78;5039858;28;20063;-76
2023/07/08 04:19:17;;;;;;;6.95;3.40;;;;;;;18.48;73.88;156070.69;5048040;28;20075;-76
2023/07/08 04:21:44;;;;;;;7.60;2.72;;;;;;;18.47;74.38;156068.09;5051403;28;20021;-76
2023/07/08 04:24:13;;;;;;;4.85;3.50;;;;;;;18.52;73.61;156082.41;5031636;28;20043;-76
2023/07/08 04:26:39;;;;;;;5.15;3.05;;;;;;;18.53;73.83;156083.72;5030453;28;20078;-76
2023/07/08 04:29:13;;;;;;;6.70;3.00;;;;;;;18.54;73.85;156086.31;5048110;28;20057;-75
2023/07/08 04:31:39;;;;;;;6.95;2.97;;;;;;;18.53;74.38;156083.72;5048590;28;20067;-75
2023/07/08 04:34:06;;;;;;;8.00;3.20;;;;;;;18.55;74.43;156090.25;5032070;28;20061;-75
2023/07/08 04:36:32;;;;;;;10.80;2.85;;;;;;;18.51;74.68;156078.53;5026862;28;20519;-76
2023/07/08 04:38:58;;;;;;;3.95;2.95;;;;;;;18.49;74.90;156074.63;5027563;28;20116;-76
2023/07/08 04:41:25;;;;;;;6.30;3.17;;;;;;;18.53;75.25;156083.72;5031267;28;20112;-76
2023/07/08 04:43:53;;;;;;;10.07;3.08;;;;;;;18.61;74.65;156104.53;5028199;28;20032;-76
2023/07/08 04:46:28;;;;;;;4.47;2.70;;;;;;;18.66;74.25;156118.91;5030028;28;20083;-76
2023/07/08 04:48:53;;;;;;;5.50;3.30;;;;;;;18.66;74.84;156118.91;5049083;28;20035;-76
2023/07/08 04:51:19;;;;;;;4.13;2.90;;;;;;;18.70;74.55;156128.00;5049726;28;20502;-76
2023/07/08 04:53:45;;;;;;;6.87;3.33;;;;;;;18.77;74.60;156146.25;5031434;28;20033;-76
2023/07/08 04:56:11;;;;;;;5.50;3.08;;;;;;;18.79;74.43;156152.75;5049289;28;20583;-76
2023/07/08 04:58:36;;;;;;;5.53;3.43;;;;;;;18.87;74.28;156173.63;5030425;28;20037;-76
2023/07/08 05:01:03;;;;;;;6.80;3.67;;;;;;;18.97;73.85;156199.69;5026724;28;20025;-73
2023/07/08 05:03:28;;;;;;;;;;;;;;;19.04;73.59;156216.66;5049671;28;20032;-72
2023/07/08 05:05:53;;;;;;;5.45;3.38;;;;;;;19.04;72.81;156217.91;5048752;28;19917;-72
2023/07/08 05:08:20;;;;;;;5.23;3.83;;;;;;;19.15;72.89;156246.59;5050931;28;20040;-73
2023/07/08 05:10:45;;;;;;;;;;;;;;;19.19;72.67;156257.03;5047711;28;20036;-72
2023/07/08 05:13:11;;;;;;;5.68;3.78;;;;;;;19.31;72.04;156287.06;5048928;28;20376;-72
2023/07/08 05:15:38;;;;;;;5.47;3.40;;;;;;;19.47;70.98;156330.06;5047492;28;20017;-72
2023/07/08 05:18:03;;;;;;;7.20;4.25;;;;;;;19.65;70.06;156375.72;5049614;28;20037;-73
2023/07/08 05:20:30;;;;;;;4.90;2.90;;;;;;;20.21;nan;156521.78;5048161;28;20025;-73
2023/07/08 05:22:56;;;;;;;9.30;3.22;;;;;;;21.21;64.43;156782.81;5047990;28;20021;-73
2023/07/08 05:25:22;;;;;;;5.83;3.27;;;;;;;22.11;61.04;157019.22;5052312;28;20024;-73
2023/07/08 05:27:48;;;;;;;6.40;3.37;;;;;;;22.91;56.43;157227.00;5052723;28;20028;-73
2023/07/08 05:30:16;;;;;;;3.83;3.03;;;;;;;23.84;54.54;157471.53;5048866;28;20043;-72
2023/07/08 05:32:42;;;;;;;4.45;3.15;;;;;;;24.61;52.44;157671.78;5030531;28;20040;-72
2023/07/08 05:35:08;;;;;;;4.32;3.00;;;;;;;24.86;51.04;157737.22;5046249;28;20029;-73
2023/07/08 05:37:33;;;;;;;7.43;3.17;;;;;;;25.43;49.51;157887.81;5022311;28;20056;-73
2023/07/08 05:40:02;;;;;;;9.87;2.90;;;;;;;25.41;50.67;157882.59;5032729;28;20032;-73
2023/07/08 05:42:28;;;;;;;7.93;3.40;;;;;;;26.26;48.35;158103.94;5034737;28;20109;-72
2023/07/08 05:44:54;;;;;;;3.45;2.70;;;;;;;26.62;47.15;158199.63;5051430;28;20155;-72
2023/07/08 05:47:21;;;;;;;13.35;2.63;;;;;;;27.13;45.28;158333.31;5014866;28;20029;-72
2023/07/08 05:49:47;;;;;;;4.68;2.60;;;;;;;27.01;46.05;158300.53;5029657;28;20033;-71
2023/07/08 05:52:14;;;;;;;5.63;3.05;;;;;;;27.66;43.67;158471.00;5051246;28;20045;-72
2023/07/08 05:54:41;;;;;;;6.57;2.90;;;;;;;27.67;44.70;158473.59;5048680;28;20039;-71
2023/07/08 05:57:10;;;;;;;10.35;2.50;;;;;;;27.47;43.58;158421.19;5034524;28;20033;-72
2023/07/08 05:59:38;;;;;;;3.88;2.53;;;;;;;27.97;43.44;158552.38;5049486;28;20372;-72
2023/07/08 06:02:05;;;;;;;5.07;3.17;;;;;;;28.31;43.04;158641.53;5031331;28;20044;-73
2023/07/08 06:04:31;;;;;;;8.13;3.05;;;;;;;28.45;42.29;158679.66;5046498;28;20060;-72
2023/07/08 06:06:57;;;;;;;;;;;;;;;28.36;42.65;158656.00;5010029;28;20095;-72
2023/07/08 06:09:22;;;;;;;4.97;2.50;;;;;;;28.76;40.43;158760.97;5050581;28;19912;-72
2023/07/08 06:11:48;;;;;;;4.38;2.63;;;;;;;28.78;40.64;158764.91;5048158;28;20110;-72
2023/07/08 06:14:13;;;;;;;7.43;2.97;;;;;;;28.91;40.18;158800.34;5049120;28;20040;-72
2023/07/08 06:16:39;;;;;;;4.25;3.00;;;;;;;28.65;40.35;158732.13;5026941;28;20061;-71
2023/07/08 06:19:04;;;;;;;5.60;3.03;;;;;;;28.57;41.30;158709.81;5052360;28;20504;-72
2023/07/08 06:21:30;;;;;;;6.07;2.95;;;;;;;28.99;40.86;158820.09;5050375;28;20473;-72
2023/07/08 06:23:55;;;;;;;5.38;3.08;;;;;;;29.19;40.21;158872.59;5051900;28;20025;-71
2023/07/08 06:26:21;;;;;;;7.85;2.80;;;;;;;29.50;39.93;158954.00;5051692;28;20025;-72
2023/07/08 06:28:47;;;;;;;6.35;3.03;;;;;;;29.66;37.95;158996.06;5032751;28;20423;-73
2023/07/08 06:31:15;;;;;;;7.15;3.30;;;;;;;29.77;38.93;159024.94;5030311;28;20040;-73
2023/07/08 06:33:43;;;;;;;10.18;2.78;;;;;;;30.03;39.72;159094.53;5051081;28;20411;-72
2023/07/08 06:36:09;;;;;;;7.03;3.00;;;;;;;29.55;39.43;158967.19;5045472;28;20029;-72
2023/07/08 06:38:35;;;;;;;6.93;2.70;;;;;;;30.43;37.20;159198.34;5047231;28;20059;-72
2023/07/08 06:41:00;;;;;;;4.47;2.90;;;;;;;30.27;37.91;159156.31;5050310;28;20099;-73
2023/07/08 06:43:26;;;;;;;10.20;3.17;;;;;;;30.38;38.18;159186.53;5041202;28;20388;-72
2023/07/08 06:45:52;;;;;;;7.25;2.65;;;;;;;30.46;38.33;159206.25;5049393;28;20100;-72
2023/07/08 06:48:17;;;;;;;6.13;3.03;;;;;;;30.37;37.01;159183.91;5046058;28;20543;-72
2023/07/08 06:50:47;;;;;;;8.18;3.25;;;;;;;30.72;36.20;159275.91;5041272;28;20646;-73
2023/07/08 06:53:13;;;;;;;7.50;3.60;;;;;;;30.03;38.02;159093.25;5047114;28;20059;-72
2023/07/08 06:55:38;;;;;;;6.93;2.92;;;;;;;30.38;38.29;159185.19;5050877;28;20033;-71
2023/07/08 06:58:04;;;;;;;6.18;3.60;;;;;;;30.53;37.22;159225.94;5048503;28;20055;-72
2023/07/08 07:00:29;;;;;;;8.05;3.47;;;;;;;29.66;38.02;158996.06;5023210;28;20075;-72
2023/07/08 07:02:55;;;;;;;6.68;3.22;;;;;;;29.37;39.30;158921.19;5044812;28;20040;-72
2023/07/08 07:05:20;;;;;;;7.65;2.90;;;;;;;29.66;39.33;158997.34;5028814;28;20400;-72
2023/07/08 07:07:46;;;;;;;14.20;4.10;;;;;;;29.95;38.89;159072.19;5045396;28;20025;-72
2023/07/08 07:10:11;;;;;;;;;;;;;;;29.50;38.06;158955.28;5050415;28;20025;-73
2023/07/08 07:12:36;;;;;;;4.93;3.72;;;;;;;29.15;39.19;158862.09;5049518;28;19913;-74
2023/07/08 07:15:02;;;;;;;;;;;;;;;29.53;39.15;158961.84;5049842;28;20536;-73
2023/07/08 07:17:27;;;;;;;7.68;3.58;;;;;;;29.22;40.70;158881.78;5042379;28;19952;-73
2023/07/08 07:19:53;;;;;;;;;;;;;;;29.56;39.78;158969.81;5050265;28;20540;-72
2023/07/08 07:22:19;;;;;;;7.00;3.70;;;;;;;29.61;39.19;158982.94;5048814;28;20423;-72
2023/07/08 07:24:44;;;;;;;;;;;;;;;29.55;38.89;158967.19;5045895;28;20034;-72
2023/07/08 07:27:10;;;;;;;7.33;3.50;;;;;;;28.78;41.20;158764.91;5042625;28;19920;-72
2023/07/08 07:29:40;;;;;;;;;;;;;;;29.14;40.08;158860.75;5044665;28;20309;-73
2023/07/08 07:32:06;;;;;;;8.77;3.90;;;;;;;29.16;39.56;158866.03;5040429;28;19916;-72
2023/07/08 07:34:31;;;;;;;;;;;;;;;29.52;40.59;158959.22;5044345;28;20526;-72
2023/07/08 07:36:57;;;;;;;7.57;3.77;;;;;;;29.39;40.38;158926.41;5042339;28;20003;-72
2023/07/08 07:39:22;;;;;;;10.68;4.47;;;;;;;29.47;40.62;158947.44;5026969;28;20316;-72
2023/07/08 07:41:47;;;;;;;;;;;;;;;29.59;39.65;158978.97;5041588;28;20459;-72
2023/07/08 07:44:14;;;;;;;6.88;3.72;;;;;;;29.70;40.56;159006.53;5049166;28;20326;-72
2023/07/08 07:46:39;;;;;;;6.60;4.03;;;;;;;29.63;40.32;158989.50;5045577;28;20021;-72
2023/07/08 07:49:05;;;;;;;10.02;3.80;;;;;;;29.85;41.08;159047.28;5042665;28;20261;-72
2023/07/08 07:51:30;;;;;;;6.57;3.90;;;;;;;29.36;40.86;158918.56;5038053;28;22038;-72
2023/07/08 07:53:55;;;;;;;9.00;4.35;;;;;;;28.91;40.82;158799.06;5040590;28;20515;-72
2023/07/08 07:56:21;;;;;;;7.88;5.00;;;;;;;29.06;41.44;158838.44;5048904;28;20032;-72
2023/07/08 07:58:46;;;;;;;11.07;5.07;;;;;;;28.49;42.57;158690.13;5037329;28;20021;-73
2023/07/08 08:01:13;;;;;;;12.48;4.78;;;;;;;28.51;43.25;158694.06;5047153;28;20456;-72
2023/07/08 08:03:38;;;;;;;7.68;4.35;;;;;;;28.86;42.70;158785.94;5028185;28;20029;-72
2023/07/08 08:06:04;;;;;;;8.57;4.65;;;;;;;28.77;42.39;158762.31;5050713;28;20114;-72
2023/07/08 08:08:29;;;;;;;6.77;4.13;;;;;;;28.91;41.91;158799.06;5050502;28;20033;-72
2023/07/08 08:10:55;;;;;;;8.98;4.97;;;;;;;28.19;42.68;158610.06;5045673;28;20335;-71
2023/07/08 08:13:20;;;;;;;9.98;5.57;;;;;;;28.27;42.98;158631.06;5025073;28;20583;-72
2023/07/08 08:15:45;;;;;;;7.95;4.68;;;;;;;28.26;43.19;158629.75;5046530;28;20060;-72
2023/07/08 08:18:11;;;;;;;9.05;5.95;;;;;;;28.43;43.17;158674.38;5023590;28;20033;-71
2023/07/08 08:20:36;;;;;;;15.07;5.10;;;;;;;28.44;42.40;158675.72;5044534;28;20020;-72
2023/07/08 08:23:02;;;;;;;8.68;5.20;;;;;;;28.32;43.72;158644.19;5049370;28;20669;-72
2023/07/08 08:25:27;;;;;;;12.70;6.57;;;;;;;28.76;42.99;158759.69;5047497;28;20391;-72
2023/07/08 08:27:52;;;;;;;10.98;5.25;;;;;;;28.28;43.77;158633.69;5048541;28;20414;-72
2023/07/08 08:30:19;;;;;;;6.47;4.80;;;;;;;28.74;44.22;158754.41;5048014;28;20044;-72
2023/07/08 08:32:44;;;;;;;9.43;5.40;;;;;;;28.50;42.25;158691.47;5031967;28;20104;-72
2023/07/08 08:35:09;;;;;;;9.53;4.27;;;;;;;28.80;43.39;158771.50;5049415;28;20116;-72
2023/07/08 08:37:35;;;;;;;12.75;5.22;;;;;;;29.04;42.58;158833.22;5046297;28;20033;-72
2023/07/08 08:40:01;;;;;;;8.05;4.68;;;;;;;28.31;44.17;158642.88;5028302;28;20047;-71
2023/07/08 08:42:46;;;;;;;10.40;5.55;;;;;;;28.11;42.90;158589.09;5047823;28;20079;-72
2023/07/08 08:45:17;;;;;;;9.05;4.88;;;;;;;28.34;42.90;158650.72;5029155;28;20485;-72
2023/07/08 08:47:45;;;;;;;10.52;5.68;;;;;;;28.33;43.13;158648.09;5046290;28;20365;-72
2023/07/08 08:50:13;;;;;;;7.60;4.65;;;;;;;28.37;44.54;158657.28;5048489;28;20396;-71
2023/07/08 08:52:41;;;;;;;12.43;6.00;;;;;;;28.26;43.36;158629.75;5048711;28;20131;-73
2023/07/08 08:55:15;;;;;;;9.88;5.03;;;;;;;28.51;43.08;158694.06;5046407;28;20051;-70
2023/07/08 08:58:11;;;;;;;8.20;5.30;;;;;;;28.64;43.00;158729.50;5043508;28;20086;-69
2023/07/08 09:00:42;;;;;;;15.68;5.88;;;;;;;28.53;42.96;158699.31;5048558;28;20033;-70
2023/07/08 09:03:14;;;;;;;9.18;5.13;;;;;;;28.98;43.39;158817.47;5034754;28;20254;-70
2023/07/08 09:05:41;;;;;;;14.35;5.00;;;;;;;29.14;42.64;158859.47;5032034;28;20024;-69
2023/07/08 09:08:42;;;;;;;12.25;4.93;;;;;;;29.20;43.49;158876.56;5052037;28;20047;-70
2023/07/08 09:11:13;;;;;;;8.45;5.25;;;;;;;28.89;43.16;158793.78;4987172;28;20030;-70
2023/07/08 09:13:38;;;;;;;10.15;5.05;;;;;;;28.88;43.58;158791.19;5036001;28;20089;-70
2023/07/08 09:16:16;;;;;;;9.95;4.88;;;;;;;29.35;43.29;158914.59;5049586;28;20533;-69
2023/07/08 09:18:56;;;;;;;9.18;5.30;;;;;;;29.40;41.96;158929.03;5047738;28;20378;-70
2023/07/08 09:21:34;;;;;;;11.15;5.28;;;;;;;29.53;42.55;158963.19;5033823;28;20032;-70
2023/07/08 09:24:04;;;;;;;17.98;7.93;;;;;;;29.41;40.82;158931.69;5046187;28;20025;-69
2023/07/08 09:26:32;;;;;;;12.68;5.90;;;;;;;29.61;40.97;158982.94;5046171;28;20037;-69
2023/07/08 09:28:57;;;;;;;10.73;5.82;;;;;;;29.60;40.00;158981.59;5047524;28;20044;-70
2023/07/08 09:31:32;;;;;;;10.32;6.00;;;;;;;29.78;41.63;159028.84;5046655;28;20383;-71
2023/07/08 09:34:13;;;;;;;9.65;5.78;;;;;;;29.94;40.98;159069.59;5029433;28;20511;-71
2023/07/08 09:36:42;;;;;;;8.45;5.53;;;;;;;30.04;40.46;159097.13;5049537;28;20021;-72
2023/07/08 09:39:14;;;;;;;7.55;5.28;;;;;;;30.18;39.43;159132.66;5052446;28;20032;-72
2023/07/08 09:41:41;;;;;;;14.20;5.32;;;;;;;30.33;38.59;159173.41;5051692;28;20040;-72
2023/07/08 09:44:28;;;;;;;11.65;6.13;;;;;;;30.04;37.85;159095.84;5033138;28;20032;-72
2023/07/08 09:46:55;;;;;;;13.07;5.82;;;;;;;30.25;39.98;159152.34;5043273;28;20040;-72
2023/07/08 09:49:22;;;;;;;11.50;6.30;;;;;;;30.29;38.96;159162.88;5037990;28;20025;-72
2023/07/08 09:51:51;;;;;;;8.10;5.63;;;;;;;30.37;38.91;159182.59;5022005;28;20037;-72
2023/07/08 09:54:18;;;;;;;10.18;4.95;;;;;;;30.64;40.59;159253.50;5023650;28;20047;-73
2023/07/08 09:56:50;;;;;;;7.75;6.22;;;;;;;30.17;39.54;159130.03;5047870;28;20095;-73
2023/07/08 09:59:27;;;;;;;10.23;5.75;;;;;;;30.39;40.50;159187.81;5027845;28;20589;-72
2023/07/08 10:01:53;;;;;;;12.70;5.72;;;;;;;30.55;40.14;159229.84;5047328;28;20025;-71
2023/07/08 10:04:19;;;;;;;13.82;5.63;;;;;;;30.82;38.01;159300.84;5032593;28;20377;-72
2023/07/08 10:06:47;;;;;;;;;;;;;;;30.12;39.71;159116.91;5033412;28;20420;-72
2023/07/08 10:09:19;;;;;;;9.50;6.20;;;;;;;30.90;39.67;159323.19;5031348;28;20325;-72
2023/07/08 10:11:50;;;;;;;9.13;5.70;;;;;;;31.04;36.99;159360.00;5048571;28;20029;-72
2023/07/08 10:14:31;;;;;;;9.65;5.95;;;;;;;31.27;37.21;159419.19;5048844;28;20028;-72
2023/07/08 10:16:57;;;;;;;8.68;5.45;;;;;;;31.10;37.39;159374.47;5047766;28;20033;-71
2023/07/08 10:19:23;;;;;;;;;;;;;;;31.55;37.48;159492.78;5032686;28;20086;-72
2023/07/08 10:22:37;;;;;;;10.25;5.63;;;;;;;31.35;37.74;159441.53;5048666;28;19962;-72
2023/07/08 10:25:27;;;;;;;10.27;5.45;;;;;;;31.78;38.28;159554.63;5039450;28;20041;-72
2023/07/08 10:28:12;;;;;;;9.48;5.70;;;;;;;32.04;37.37;159623.00;5046597;28;20021;-72
2023/07/08 10:31:13;;;;;;;13.50;5.82;;;;;;;32.16;36.67;159654.56;5028543;28;20028;-72
2023/07/08 10:34:09;;;;;;;9.90;5.40;;;;;;;32.27;38.04;159682.25;5008006;28;20385;-72
2023/07/08 10:36:53;;;;;;;12.73;5.72;;;;;;;32.19;37.62;159662.47;5047655;28;20112;-72
2023/07/08 10:39:40;;;;;;;11.20;6.03;;;;;;;32.23;37.73;159671.69;5049918;28;20349;-71
2023/07/08 10:42:19;;;;;;;10.23;5.78;;;;;;;32.55;36.58;159757.19;5051100;28;20025;-71
2023/07/08 10:45:04;;;;;;;12.35;5.53;;;;;;;32.09;36.27;159636.16;5029396;28;20477;-72
2023/07/08 10:47:57;;;;;;;17.42;6.68;;;;;;;31.95;35.39;159598.03;5047459;28;20057;-72
2023/07/08 10:51:07;;;;;;;10.13;5.47;;;;;;;32.10;36.87;159638.78;5051031;28;20477;-72
2023/07/08 10:53:36;;;;;;;6.85;5.18;;;;;;;32.22;37.28;159670.34;5046676;28;20562;-72
2023/07/08 10:56:37;;;;;;;13.27;5.65;;;;;;;32.61;36.63;159771.69;5047759;28;20052;-72
2023/07/08 10:59:34;;;;;;;11.25;5.68;;;;;;;32.85;36.36;159836.19;5017059;28;20398;-72
2023/07/08 11:02:33;;;;;;;12.55;6.20;;;;;;;32.58;35.99;159765.09;5028990;28;20384;-72
2023/07/08 11:05:17;;;;;;;11.20;6.18;;;;;;;32.59;36.88;159767.72;5048021;28;20028;-71
2023/07/08 11:07:56;;;;;;;8.55;5.40;;;;;;;33.01;37.32;159878.28;5046033;28;20756;-71
2023/07/08 11:11:20;;;;;;;8.30;5.93;;;;;;;32.99;35.84;159873.03;5030945;28;20039;-71
2023/07/08 11:13:52;;;;;;;11.70;6.28;;;;;;;32.77;36.75;159815.16;4995846;28;20072;-72
2023/07/08 11:16:35;;;;;;;10.63;5.20;;;;;;;33.17;36.22;159920.38;5044574;28;20124;-72
2023/07/08 11:19:23;;;;;;;11.32;6.80;;;;;;;33.09;34.53;159899.34;5046909;28;20025;-72
2023/07/08 11:21:55;;;;;;;12.55;6.38;;;;;;;33.38;34.55;159974.38;5048375;28;20098;-71
2023/07/08 11:24:38;;;;;;;14.48;5.60;;;;;;;33.67;35.07;160050.75;5030571;28;20091;-71
2023/07/08 11:27:14;;;;;;;8.63;5.18;;;;;;;33.76;34.54;160075.72;5025204;28;20036;-70
2023/07/08 11:29:48;;;;;;;14.18;5.85;;;;;;;33.82;35.07;160090.28;5047286;28;20373;-71
2023/07/08 11:32:17;;;;;;;14.10;5.70;;;;;;;33.80;35.00;160086.31;5045374;28;20567;-71
2023/07/08 11:34:46;;;;;;;9.88;5.85;;;;;;;33.90;34.39;160111.31;5040086;28;20072;-71
2023/07/08 11:37:13;;;;;;;11.70;5.85;;;;;;;33.66;34.01;160048.13;5049537;28;20115;-71
2023/07/08 11:39:41;;;;;;;8.43;5.95;;;;;;;33.88;33.52;160106.09;5040906;28;20025;-71
2023/07/08 11:42:14;;;;;;;11.93;6.00;;;;;;;34.33;33.39;160225.94;5047010;28;20357;-72